Lynwood, Idaho
Current Conditions -  °F | °C
As of 10:53 AM on Thursday 30 Oct 2014 (Local Time) from KTWF Reporting Station
Clear Clear  
Wind Chill: 52°   Ceiling: Unl
Heat Index: 52°   Visibility: 10mi
Dew Point: 34°   Wind: 7mph
Humidity: 50%   Direction: 80°E
Pressure: 30.21"   Gusts: NA
Location:  42.2444°N, 114.662°W
Report Text: KTWF 301653Z 08006KT 10SM CLR 11/01 A3021 RMK AO2 SLP209 T01110011
Loading
Personal Weather Stations






























Interactive Weather Map
Tropical Storm Tracking
New forecast layout! Learn more

10-Day Weather Forecast

Advertisements
Track Severe Weather on mobile